createdAt,value
2023-05-11T00:00:38.878Z,6.30
2023-05-11T00:03:06.244Z,6.35
2023-05-11T00:05:32.759Z,6.68
2023-05-11T00:07:59.096Z,6.40
2023-05-11T00:10:25.473Z,6.55
2023-05-11T00:12:51.858Z,6.20
2023-05-11T00:15:18.295Z,6.63
2023-05-11T00:17:45.298Z,6.97
2023-05-11T00:20:11.736Z,5.95
2023-05-11T00:22:39.094Z,6.90
2023-05-11T00:25:06.368Z,7.15
2023-05-11T00:27:32.825Z,6.85
2023-05-11T00:29:59.154Z,7.10
2023-05-11T00:32:25.496Z,6.43
2023-05-11T00:34:51.907Z,6.28
2023-05-11T00:37:18.221Z,6.75
2023-05-11T00:39:44.544Z,6.05
2023-05-11T00:42:11.380Z,6.80
2023-05-11T00:44:37.746Z,6.43
2023-05-11T00:47:04.657Z,6.80
2023-05-11T00:49:31.236Z,6.13
2023-05-11T00:51:57.814Z,6.05
2023-05-11T00:54:24.688Z,6.45
2023-05-11T00:56:51.859Z,6.38
2023-05-11T00:59:18.876Z,6.80
2023-05-11T01:01:45.510Z,6.00
2023-05-11T01:04:12.171Z,6.45
2023-05-11T01:06:51.696Z,6.78
2023-05-11T01:09:32.143Z,7.43
2023-05-11T01:12:13.471Z,6.15
2023-05-11T01:15:04.727Z,6.10
2023-05-11T01:17:42.686Z,6.45
2023-05-11T01:20:16.968Z,6.40
2023-05-11T01:23:10.885Z,6.88
2023-05-11T01:25:55.440Z,6.63
2023-05-11T01:29:03.584Z,7.40
2023-05-11T01:31:34.397Z,7.22
2023-05-11T01:34:06.323Z,6.55
2023-05-11T01:36:35.986Z,6.32
2023-05-11T01:39:08.033Z,6.22
2023-05-11T01:41:38.446Z,6.05
2023-05-11T01:44:08.589Z,6.65
2023-05-11T01:46:35.151Z,7.07
2023-05-11T01:49:07.414Z,7.43
2023-05-11T01:51:39.927Z,7.97
2023-05-11T01:54:08.486Z,7.45
2023-05-11T01:56:36.811Z,7.30
2023-05-11T01:59:04.051Z,7.68
2023-05-11T02:01:32.141Z,6.70
2023-05-11T02:04:00.888Z,6.43
2023-05-11T02:06:30.550Z,6.70
2023-05-11T02:08:59.413Z,5.80
2023-05-11T02:11:27.974Z,6.18
2023-05-11T02:13:58.318Z,6.22
2023-05-11T02:16:26.028Z,6.97
2023-05-11T02:18:54.103Z,6.72
2023-05-11T02:21:20.812Z,6.68
2023-05-11T02:23:49.652Z,6.13
2023-05-11T02:26:16.695Z,6.07
2023-05-11T02:28:43.881Z,6.65
2023-05-11T02:31:16.357Z,6.05
2023-05-11T02:33:48.901Z,5.68
2023-05-11T02:36:21.253Z,6.18
2023-05-11T02:38:49.010Z,6.43
2023-05-11T02:41:22.157Z,6.57
2023-05-11T02:43:52.390Z,7.07
2023-05-11T02:46:26.185Z,6.57
2023-05-11T02:48:57.634Z,6.60
2023-05-11T02:51:30.812Z,6.63
2023-05-11T02:53:59.214Z,6.18
2023-05-11T02:56:25.917Z,6.70
2023-05-11T02:58:52.492Z,6.47
2023-05-11T03:01:19.794Z,6.05
2023-05-11T03:03:46.408Z,5.63
2023-05-11T03:06:13.069Z,5.82
2023-05-11T03:08:41.822Z,6.63
2023-05-11T03:11:09.261Z,5.72
2023-05-11T03:13:36.026Z,5.75
2023-05-11T03:16:02.849Z,5.50
2023-05-11T03:18:31.092Z,6.03
2023-05-11T03:21:00.326Z,6.20
2023-05-11T03:23:27.217Z,6.47
2023-05-11T03:25:54.825Z,6.43
2023-05-11T03:28:22.733Z,6.60
2023-05-11T03:30:50.468Z,6.43
2023-05-11T03:33:16.808Z,6.93
2023-05-11T03:35:44.449Z,7.43
2023-05-11T03:38:12.679Z,7.38
2023-05-11T03:40:41.686Z,7.15
2023-05-11T03:43:11.260Z,7.95
2023-05-11T03:45:39.410Z,7.95
2023-05-11T03:48:06.766Z,8.05
2023-05-11T03:50:34.070Z,7.75
2023-05-11T03:53:00.897Z,8.18
2023-05-11T03:55:27.641Z,7.72
2023-05-11T03:57:54.072Z,7.55
2023-05-11T04:00:20.688Z,8.07
2023-05-11T04:02:47.313Z,8.18
2023-05-11T04:05:13.911Z,8.00
2023-05-11T04:07:40.300Z,8.10
2023-05-11T04:10:07.401Z,7.97
2023-05-11T04:12:34.048Z,7.72
2023-05-11T04:15:00.476Z,7.63
2023-05-11T04:17:26.854Z,8.35
2023-05-11T04:19:53.248Z,8.15
2023-05-11T04:22:19.632Z,7.75
2023-05-11T04:24:45.960Z,8.25
2023-05-11T04:27:12.321Z,8.10
2023-05-11T04:29:38.658Z,7.72
2023-05-11T04:32:05.083Z,7.72
2023-05-11T04:34:31.492Z,8.02
2023-05-11T04:36:57.823Z,7.95
2023-05-11T04:39:24.164Z,8.43
2023-05-11T04:41:50.497Z,6.95
2023-05-11T04:44:16.803Z,7.70
2023-05-11T04:46:43.221Z,7.47
2023-05-11T04:49:09.582Z,7.70
2023-05-11T04:51:36.104Z,7.85
2023-05-11T04:54:02.480Z,8.10
2023-05-11T04:56:28.822Z,8.32
2023-05-11T04:58:55.170Z,8.45
2023-05-11T05:01:21.625Z,8.95
2023-05-11T05:03:49.250Z,8.82
2023-05-11T05:06:15.599Z,9.07
2023-05-11T05:08:42.063Z,9.68
2023-05-11T05:11:08.465Z,9.85
2023-05-11T05:13:34.795Z,8.93
2023-05-11T05:16:01.278Z,8.65
2023-05-11T05:18:27.740Z,9.32
2023-05-11T05:20:54.217Z,10.63
2023-05-11T05:23:20.656Z,10.35
2023-05-11T05:25:47.209Z,10.75
2023-05-11T05:28:13.600Z,10.23
2023-05-11T05:30:40.112Z,10.43
2023-05-11T05:33:06.611Z,10.30
2023-05-11T05:35:33.048Z,10.68
2023-05-11T05:37:59.423Z,10.02
2023-05-11T05:40:25.816Z,12.00
2023-05-11T05:42:52.459Z,11.57
2023-05-11T05:45:18.805Z,10.98
2023-05-11T05:47:45.256Z,11.20
2023-05-11T05:50:11.888Z,11.48
2023-05-11T05:52:38.256Z,11.65
2023-05-11T05:55:04.981Z,12.18
2023-05-11T05:57:31.390Z,11.70
2023-05-11T05:59:57.837Z,11.73
2023-05-11T06:02:24.319Z,12.23
2023-05-11T06:04:50.952Z,12.90
2023-05-11T06:07:17.308Z,13.32
2023-05-11T06:09:43.689Z,14.18
2023-05-11T06:12:10.303Z,13.77
2023-05-11T06:14:36.788Z,14.15
2023-05-11T06:17:03.291Z,13.30
2023-05-11T06:19:29.626Z,13.82
2023-05-11T06:21:55.973Z,13.07
2023-05-11T06:24:22.396Z,12.30
2023-05-11T06:26:48.752Z,12.10
2023-05-11T06:29:15.222Z,8.95
2023-05-11T06:31:41.616Z,5.80
2023-05-11T06:34:09.311Z,5.82
2023-05-11T06:36:54.348Z,4.38
2023-05-11T06:39:20.715Z,3.70
2023-05-11T06:41:47.019Z,3.20
2023-05-11T06:44:13.511Z,3.05
2023-05-11T06:46:39.908Z,2.95
2023-05-11T06:49:07.812Z,3.25
2023-05-11T06:51:34.352Z,2.90
2023-05-11T06:54:00.941Z,2.88
2023-05-11T06:56:28.003Z,2.63
2023-05-11T06:58:54.835Z,2.80
2023-05-11T07:01:21.211Z,2.88
2023-05-11T07:03:49.093Z,2.40
2023-05-11T07:06:15.489Z,2.20
2023-05-11T07:08:42.161Z,2.00
2023-05-11T07:11:08.577Z,2.30
2023-05-11T07:13:34.907Z,2.10
2023-05-11T07:16:01.389Z,2.28
2023-05-11T07:18:27.752Z,2.22
2023-05-11T07:20:54.085Z,2.22
2023-05-11T07:23:20.474Z,2.30
2023-05-11T07:25:46.810Z,2.47
2023-05-11T07:28:13.121Z,2.75
2023-05-11T07:30:39.488Z,2.80
2023-05-11T07:33:06.687Z,2.80
2023-05-11T07:35:33.139Z,2.47
2023-05-11T07:37:59.534Z,2.45
2023-05-11T07:40:25.937Z,2.28
2023-05-11T07:42:52.292Z,2.05
2023-05-11T07:45:18.729Z,2.10
2023-05-11T07:47:45.372Z,1.80
2023-05-11T07:50:12.666Z,1.67
2023-05-11T07:52:39.440Z,1.73
2023-05-11T07:55:06.350Z,1.70
2023-05-11T07:57:32.687Z,1.55
2023-05-11T07:59:59.029Z,1.63
2023-05-11T08:02:25.470Z,1.55
2023-05-11T08:04:51.855Z,1.80
2023-05-11T08:07:18.249Z,1.65
2023-05-11T08:09:44.571Z,1.80
2023-05-11T08:12:10.957Z,1.80
2023-05-11T08:14:37.841Z,2.30
2023-05-11T08:17:04.189Z,1.67
2023-05-11T08:19:30.601Z,1.80
2023-05-11T08:21:56.937Z,1.80
2023-05-11T08:24:23.309Z,1.80
2023-05-11T08:26:49.788Z,1.98
2023-05-11T08:29:16.136Z,1.70
2023-05-11T08:31:42.696Z,1.90
2023-05-11T08:34:18.438Z,1.63
2023-05-11T08:36:46.746Z,1.75
2023-05-11T08:39:13.119Z,1.98
2023-05-11T08:41:39.528Z,1.92
2023-05-11T08:44:06.761Z,2.08
2023-05-11T08:46:35.586Z,1.98
2023-05-11T08:49:02.038Z,2.28
2023-05-11T08:51:28.789Z,2.42
2023-05-11T08:53:57.538Z,2.20
2023-05-11T08:56:25.957Z,1.90
2023-05-11T08:58:56.479Z,1.80
2023-05-11T09:01:23.685Z,1.70
2023-05-11T09:03:51.683Z,1.95
2023-05-11T09:06:18.550Z,1.73
2023-05-11T09:08:45.841Z,1.50
2023-05-11T09:11:12.636Z,2.03
2023-05-11T09:13:39.286Z,1.70
2023-05-11T09:16:11.300Z,1.40
2023-05-11T09:18:52.544Z,2.00
2023-05-11T09:21:19.802Z,1.70
2023-05-11T09:23:49.884Z,1.73
2023-05-11T09:26:28.322Z,1.80
2023-05-11T09:31:42.769Z,1.55
2023-05-11T09:34:20.414Z,1.40
2023-05-11T09:36:48.731Z,1.65
2023-05-11T09:39:29.277Z,1.50
2023-05-11T09:42:19.494Z,1.80
2023-05-11T09:44:46.780Z,1.60
2023-05-11T09:47:22.819Z,1.70
2023-05-11T09:49:49.207Z,1.83
2023-05-11T09:52:18.116Z,1.85
2023-05-11T09:54:51.186Z,2.20
2023-05-11T09:57:25.624Z,2.13
2023-05-11T09:59:52.819Z,1.90
2023-05-11T10:02:30.414Z,2.10
2023-05-11T10:04:59.321Z,1.65
2023-05-11T10:07:27.798Z,1.70
2023-05-11T10:09:56.250Z,1.30
2023-05-11T10:12:25.558Z,1.45
2023-05-11T10:14:56.279Z,1.20
2023-05-11T10:17:23.019Z,1.52
2023-05-11T10:19:50.099Z,1.40
2023-05-11T10:22:19.651Z,1.45
2023-05-11T10:24:46.795Z,1.33
2023-05-11T10:27:13.447Z,1.20
2023-05-11T10:29:39.983Z,1.60
2023-05-11T10:32:07.950Z,1.85
2023-05-11T10:34:34.377Z,1.60
2023-05-11T10:37:01.704Z,1.92
2023-05-11T10:39:29.978Z,1.70
2023-05-11T10:42:12.831Z,1.88
2023-05-11T10:45:05.790Z,1.70
2023-05-11T10:48:06.681Z,1.88
2023-05-11T10:50:52.115Z,2.03
2023-05-11T10:53:21.382Z,1.80
2023-05-11T10:56:07.226Z,2.10
2023-05-11T10:59:07.557Z,2.00
2023-05-11T11:01:40.903Z,2.15
2023-05-11T11:04:14.209Z,2.38
2023-05-11T11:06:43.593Z,2.33
2023-05-11T11:09:15.609Z,2.60
2023-05-11T11:11:46.863Z,2.33
2023-05-11T11:14:17.926Z,2.80
2023-05-11T11:17:15.253Z,2.28
2023-05-11T11:19:42.407Z,2.50
2023-05-11T11:22:34.280Z,2.60
2023-05-11T11:25:08.216Z,2.72
2023-05-11T11:27:40.852Z,2.80
2023-05-11T11:30:30.573Z,3.33
2023-05-11T11:33:06.891Z,2.90
2023-05-11T11:35:39.380Z,3.00
2023-05-11T11:38:13.455Z,3.17
2023-05-11T11:43:19.864Z,3.58
2023-05-11T11:45:56.114Z,3.30
2023-05-11T11:48:33.209Z,3.20
2023-05-11T11:51:08.458Z,3.53
2023-05-11T11:53:38.209Z,3.08
2023-05-11T11:56:05.818Z,3.10
2023-05-11T11:58:41.567Z,2.72
2023-05-11T12:01:08.790Z,2.95
2023-05-11T12:03:39.888Z,3.22
2023-05-11T12:06:08.942Z,3.65
2023-05-11T12:08:36.949Z,3.10
2023-05-11T12:11:05.877Z,3.42
2023-05-11T12:13:33.448Z,3.55
2023-05-11T12:16:10.380Z,3.15
2023-05-11T12:18:36.844Z,3.80
2023-05-11T12:21:03.402Z,3.83
2023-05-11T12:23:30.454Z,3.63
2023-05-11T12:26:06.912Z,3.80
2023-05-11T12:28:33.585Z,3.67
2023-05-11T12:31:00.849Z,3.92
2023-05-11T12:33:27.517Z,3.90
2023-05-11T12:35:55.849Z,3.60
2023-05-11T12:38:22.391Z,4.30
2023-05-11T12:40:53.257Z,4.03
2023-05-11T12:43:21.486Z,4.03
2023-05-11T12:45:48.696Z,4.18
2023-05-11T12:48:15.742Z,4.28
2023-05-11T12:50:46.855Z,4.03
2023-05-11T12:53:15.002Z,3.85
2023-05-11T12:55:41.899Z,4.07
2023-05-11T12:58:15.957Z,4.05
2023-05-11T13:00:57.508Z,4.00
2023-05-11T13:03:28.809Z,4.07
2023-05-11T13:06:08.074Z,4.28
2023-05-11T13:08:39.191Z,4.30
2023-05-11T13:11:22.809Z,4.15
2023-05-11T13:13:49.921Z,4.22
2023-05-11T13:16:26.368Z,3.88
2023-05-11T13:19:04.207Z,4.30
2023-05-11T13:21:33.101Z,4.65
2023-05-11T13:24:00.444Z,4.22
2023-05-11T13:26:30.352Z,4.50
2023-05-11T13:29:09.274Z,4.25
2023-05-11T13:31:44.729Z,4.40
2023-05-11T13:34:11.778Z,4.45
2023-05-11T13:36:38.747Z,4.32
2023-05-11T13:39:05.602Z,3.97
2023-05-11T13:41:32.277Z,4.18
2023-05-11T13:43:58.656Z,4.20
2023-05-11T13:46:25.088Z,4.05
2023-05-11T13:48:51.588Z,3.92
2023-05-11T13:51:20.315Z,4.22
2023-05-11T13:53:46.961Z,4.00
2023-05-11T13:56:13.742Z,4.15
2023-05-11T13:58:40.146Z,3.90
2023-05-11T14:01:08.597Z,4.00
2023-05-11T14:03:35.355Z,4.55
2023-05-11T14:06:02.983Z,4.18
2023-05-11T14:08:29.442Z,4.22
2023-05-11T14:10:55.982Z,4.20
2023-05-11T14:13:22.423Z,4.03
2023-05-11T14:15:48.780Z,3.70
2023-05-11T14:18:15.239Z,4.25
2023-05-11T14:20:42.389Z,4.85
2023-05-11T14:23:08.936Z,4.72
2023-05-11T14:25:36.328Z,4.80
2023-05-11T14:28:03.186Z,4.45
2023-05-11T14:30:29.621Z,4.82
2023-05-11T14:32:56.195Z,4.88
2023-05-11T14:35:22.598Z,4.35
2023-05-11T14:37:49.154Z,4.85
2023-05-11T14:40:15.484Z,4.90
2023-05-11T14:42:42.658Z,4.53
2023-05-11T14:45:09.598Z,4.63
2023-05-11T14:47:36.078Z,4.03
2023-05-11T14:50:02.829Z,4.70
2023-05-11T14:52:29.169Z,4.38
2023-05-11T14:54:55.510Z,4.70
2023-05-11T14:57:22.208Z,4.40
2023-05-11T14:59:58.970Z,4.75
2023-05-11T15:02:26.296Z,4.68
2023-05-11T15:04:52.755Z,5.03
2023-05-11T15:07:19.096Z,5.30
2023-05-11T15:09:45.459Z,5.00
2023-05-11T15:12:11.791Z,5.15
2023-05-11T15:14:38.118Z,4.57
2023-05-11T15:17:04.574Z,4.82
2023-05-11T15:19:31.087Z,5.22
2023-05-11T15:21:57.399Z,5.22
2023-05-11T15:24:23.809Z,4.90
2023-05-11T15:26:50.278Z,4.70
2023-05-11T15:29:16.720Z,5.40
2023-05-11T15:31:43.304Z,5.28
2023-05-11T15:34:10.030Z,5.55
2023-05-11T15:36:36.363Z,5.40
2023-05-11T15:39:02.810Z,6.05
2023-05-11T15:41:29.226Z,6.32
2023-05-11T15:43:55.562Z,6.07
2023-05-11T15:46:22.491Z,5.07
2023-05-11T15:48:49.077Z,6.50
2023-05-11T15:51:15.568Z,6.47
2023-05-11T15:53:41.950Z,5.78
2023-05-11T15:56:09.460Z,6.57
2023-05-11T15:58:38.134Z,6.70
2023-05-11T16:01:04.675Z,6.68
2023-05-11T16:03:31.350Z,6.93
2023-05-11T16:05:57.839Z,6.35
2023-05-11T16:08:24.236Z,7.03
2023-05-11T16:10:51.623Z,6.57
2023-05-11T16:13:18.006Z,6.63
2023-05-11T16:15:44.376Z,6.95
2023-05-11T16:18:10.750Z,6.20
2023-05-11T16:20:37.790Z,7.43
2023-05-11T16:23:04.265Z,6.72
2023-05-11T16:25:30.649Z,6.90
2023-05-11T16:27:57.392Z,7.22
2023-05-11T16:30:25.276Z,6.70
2023-05-11T16:32:52.218Z,6.35
2023-05-11T16:35:18.779Z,6.53
2023-05-11T16:37:46.525Z,6.88
2023-05-11T16:40:12.969Z,6.53
2023-05-11T16:42:39.371Z,7.13
2023-05-11T16:45:06.435Z,7.05
2023-05-11T16:47:32.871Z,6.70
2023-05-11T16:49:59.339Z,7.25
2023-05-11T16:52:25.697Z,7.20
2023-05-11T16:54:52.009Z,6.90
2023-05-11T16:57:18.517Z,6.78
2023-05-11T16:59:44.865Z,7.05
2023-05-11T17:02:11.282Z,7.07
2023-05-11T17:04:37.766Z,7.03
2023-05-11T17:07:04.271Z,7.10
2023-05-11T17:09:30.935Z,6.88
2023-05-11T17:11:57.535Z,6.85
2023-05-11T17:14:23.886Z,7.68
2023-05-11T17:17:09.181Z,7.68
2023-05-11T17:19:35.520Z,8.02
2023-05-11T17:22:02.138Z,8.18
2023-05-11T17:24:28.944Z,8.43
2023-05-11T17:26:55.472Z,8.45
2023-05-11T17:29:29.711Z,8.50
2023-05-11T17:31:56.234Z,8.45
2023-05-11T17:34:25.766Z,9.02
2023-05-11T17:36:54.688Z,10.02
2023-05-11T17:39:21.299Z,9.85
2023-05-11T17:41:47.853Z,9.60
2023-05-11T17:44:14.196Z,9.93
2023-05-11T17:46:41.839Z,10.27
2023-05-11T17:49:08.247Z,11.60
2023-05-11T17:51:34.606Z,10.52
2023-05-11T17:54:01.103Z,11.35
2023-05-11T17:56:27.449Z,11.10
2023-05-11T17:58:53.835Z,11.82
2023-05-11T18:01:22.395Z,12.57
2023-05-11T18:03:49.084Z,11.15
2023-05-11T18:06:16.354Z,11.00
2023-05-11T18:08:42.742Z,12.13
2023-05-11T18:11:10.817Z,10.90
2023-05-11T18:13:37.168Z,11.48
2023-05-11T18:16:04.008Z,11.13
2023-05-11T18:18:30.576Z,11.60
2023-05-11T18:20:57.423Z,11.02
2023-05-11T18:23:24.097Z,10.45
2023-05-11T18:25:50.443Z,10.13
2023-05-11T18:28:16.761Z,11.50
2023-05-11T18:30:43.141Z,10.80
2023-05-11T18:33:09.478Z,12.80
2023-05-11T18:35:36.044Z,12.85
2023-05-11T18:38:04.567Z,12.63
2023-05-11T18:40:30.978Z,12.65
2023-05-11T18:42:57.385Z,11.07
2023-05-11T18:45:23.821Z,11.57
2023-05-11T18:47:51.360Z,11.32
2023-05-11T18:50:18.027Z,10.52
2023-05-11T18:52:44.745Z,10.30
2023-05-11T18:55:14.052Z,10.45
2023-05-11T18:57:40.522Z,9.75
2023-05-11T19:00:07.937Z,9.35
2023-05-11T19:02:34.578Z,9.20
2023-05-11T19:05:01.220Z,8.63
2023-05-11T19:07:28.017Z,8.82
2023-05-11T19:09:54.681Z,7.90
2023-05-11T19:12:21.042Z,7.20
2023-05-11T19:14:47.688Z,6.32
2023-05-11T19:17:14.089Z,6.82
2023-05-11T19:19:40.624Z,7.53
2023-05-11T19:22:09.061Z,7.63
2023-05-11T19:24:35.789Z,6.50
2023-05-11T19:27:07.085Z,6.85
2023-05-11T19:29:34.256Z,7.13
2023-05-11T19:32:00.797Z,6.30
2023-05-11T19:34:27.256Z,6.65
2023-05-11T19:36:53.599Z,6.82
2023-05-11T19:39:19.950Z,7.28
2023-05-11T19:41:46.295Z,8.02
2023-05-11T19:44:12.694Z,9.30
2023-05-11T19:46:45.500Z,8.18
2023-05-11T19:49:13.530Z,8.18
2023-05-11T19:51:39.892Z,8.85
2023-05-11T19:54:06.305Z,9.20
2023-05-11T19:56:35.512Z,9.45
2023-05-11T19:59:04.867Z,10.02
2023-05-11T20:01:31.443Z,9.65
2023-05-11T20:03:58.204Z,10.02
2023-05-11T20:06:26.437Z,9.98
2023-05-11T20:08:54.348Z,11.60
2023-05-11T20:11:22.277Z,10.60
2023-05-11T20:13:49.411Z,10.05
2023-05-11T20:16:16.466Z,10.38
2023-05-11T20:18:43.613Z,11.02
2023-05-11T20:21:11.393Z,10.93
2023-05-11T20:23:39.386Z,10.00
2023-05-11T20:26:07.177Z,9.40
2023-05-11T20:28:33.829Z,9.90
2023-05-11T20:31:00.561Z,10.38
2023-05-11T20:35:57.542Z,10.18
2023-05-11T20:38:23.927Z,10.40
2023-05-11T20:40:50.294Z,12.18
2023-05-11T20:43:16.707Z,11.45
2023-05-11T20:45:43.649Z,12.05
2023-05-11T20:48:10.715Z,11.80
2023-05-11T20:50:37.175Z,11.25
2023-05-11T20:53:03.625Z,11.88
2023-05-11T20:55:30.078Z,11.60
2023-05-11T20:57:57.442Z,11.40
2023-05-11T21:00:24.148Z,11.57
2023-05-11T21:02:50.783Z,12.93
2023-05-11T21:05:17.372Z,13.60
2023-05-11T21:07:43.745Z,12.13
2023-05-11T21:10:12.443Z,14.55
2023-05-11T21:12:39.042Z,14.07
2023-05-11T21:15:06.999Z,13.73
2023-05-11T21:17:33.614Z,13.48
2023-05-11T21:20:00.048Z,14.98
2023-05-11T21:22:26.368Z,15.13
2023-05-11T21:24:52.940Z,14.93
2023-05-11T21:27:19.278Z,16.13
2023-05-11T21:29:45.581Z,15.15
2023-05-11T21:32:12.035Z,16.63
2023-05-11T21:34:38.485Z,16.02
2023-05-11T21:37:04.848Z,17.33
2023-05-11T21:39:31.256Z,17.60
2023-05-11T21:41:57.586Z,18.20
2023-05-11T21:44:23.940Z,17.77
2023-05-11T21:46:50.691Z,18.35
2023-05-11T21:49:17.231Z,19.63
2023-05-11T21:51:43.680Z,20.08
2023-05-11T21:54:10.148Z,20.02
2023-05-11T21:56:36.832Z,19.83
2023-05-11T21:59:03.264Z,19.67
2023-05-11T22:01:29.664Z,21.80
2023-05-11T22:03:56.102Z,21.08
2023-05-11T22:06:22.493Z,21.58
2023-05-11T22:08:48.820Z,21.83
2023-05-11T22:11:15.186Z,23.05
2023-05-11T22:13:41.588Z,23.25
2023-05-11T22:16:07.984Z,24.27
2023-05-11T22:18:34.472Z,23.95
2023-05-11T22:21:00.852Z,23.33
2023-05-11T22:23:27.203Z,23.85
2023-05-11T22:25:53.780Z,23.80
2023-05-11T22:28:20.144Z,24.92
2023-05-11T22:30:46.542Z,24.90
2023-05-11T22:33:12.963Z,24.63
2023-05-11T22:35:39.857Z,24.23
2023-05-11T22:38:06.322Z,23.35
2023-05-11T22:40:32.628Z,23.45
2023-05-11T22:42:58.973Z,24.40
2023-05-11T22:45:25.448Z,25.33
2023-05-11T22:47:51.967Z,25.33
2023-05-11T22:50:18.679Z,24.90
2023-05-11T22:52:45.180Z,26.33
2023-05-11T22:55:11.695Z,25.35
2023-05-11T22:57:38.077Z,25.27
2023-05-11T23:00:05.473Z,26.73
2023-05-11T23:02:33.294Z,24.85
2023-05-11T23:04:59.735Z,26.35
2023-05-11T23:07:26.126Z,26.42
2023-05-11T23:09:52.894Z,24.92
2023-05-11T23:12:19.619Z,26.63
2023-05-11T23:14:45.998Z,28.35
2023-05-11T23:17:12.913Z,26.88
2023-05-11T23:19:39.419Z,26.58
2023-05-11T23:22:05.904Z,26.40
2023-05-11T23:24:32.313Z,26.13
2023-05-11T23:26:58.830Z,26.40
2023-05-11T23:29:26.859Z,26.38
2023-05-11T23:31:53.515Z,27.50
2023-05-11T23:34:19.908Z,27.45
2023-05-11T23:36:46.582Z,26.23
2023-05-11T23:39:13.097Z,26.83
2023-05-11T23:41:39.547Z,26.77
2023-05-11T23:44:05.994Z,26.50
2023-05-11T23:46:32.542Z,24.88
2023-05-11T23:48:58.901Z,26.40
2023-05-11T23:51:26.108Z,26.30
2023-05-11T23:53:52.688Z,25.67
2023-05-11T23:56:19.003Z,27.27
2023-05-11T23:58:46.113Z,25.70
